createdAt,value
2022-12-26T00:00:28.059Z,11.33
2022-12-26T00:03:20.833Z,10.13
2022-12-26T00:05:53.829Z,9.03
2022-12-26T00:08:26.766Z,8.15
2022-12-26T00:11:00.455Z,7.79
2022-12-26T00:13:39.465Z,8.69
2022-12-26T00:16:15.369Z,9.72
2022-12-26T00:18:48.737Z,10.32
2022-12-26T00:21:22.680Z,10.71
2022-12-26T00:23:55.471Z,11.03
2022-12-26T00:26:30.575Z,11.03
2022-12-26T00:29:03.251Z,9.99
2022-12-26T00:31:37.221Z,8.95
2022-12-26T00:34:10.937Z,8.11
2022-12-26T00:36:43.485Z,7.76
2022-12-26T00:39:17.690Z,8.60
2022-12-26T00:41:50.269Z,9.59
2022-12-26T00:44:23.028Z,10.41
2022-12-26T00:46:55.569Z,11.01
2022-12-26T00:49:28.371Z,11.42
2022-12-26T00:52:21.534Z,11.39
2022-12-26T00:54:55.941Z,10.29
2022-12-26T00:57:28.523Z,9.21
2022-12-26T01:00:02.556Z,8.37
2022-12-26T01:02:41.336Z,8.05
2022-12-26T01:05:14.719Z,9.03
2022-12-26T01:08:19.446Z,9.90
2022-12-26T01:10:41.749Z,10.58
2022-12-26T01:13:15.831Z,11.03
2022-12-26T01:15:52.880Z,11.21
2022-12-26T01:18:25.514Z,11.28
2022-12-26T01:21:01.968Z,11.18
2022-12-26T01:23:34.687Z,10.24
2022-12-26T01:26:18.818Z,9.22
2022-12-26T01:28:54.299Z,8.35
2022-12-26T01:31:27.132Z,8.01
2022-12-26T01:33:59.941Z,8.80
2022-12-26T01:36:33.906Z,9.64
2022-12-26T01:39:06.607Z,10.17
2022-12-26T01:41:39.420Z,10.48
2022-12-26T01:44:42.114Z,10.64
2022-12-26T01:47:15.690Z,10.81
2022-12-26T01:49:50.852Z,10.86
2022-12-26T01:52:33.899Z,10.91
2022-12-26T01:55:09.285Z,10.97
2022-12-26T01:57:46.319Z,11.37
2022-12-26T02:00:19.822Z,11.80
2022-12-26T02:03:06.450Z,11.84
2022-12-26T02:05:40.040Z,10.79
2022-12-26T02:08:16.276Z,9.76
2022-12-26T02:10:52.041Z,8.93
2022-12-26T02:13:28.754Z,8.26
2022-12-26T02:16:01.343Z,8.17
2022-12-26T02:18:33.908Z,9.51
2022-12-26T02:21:26.070Z,10.72
2022-12-26T02:24:32.024Z,11.44
2022-12-26T02:27:26.323Z,11.80
2022-12-26T02:30:09.222Z,11.78
2022-12-26T02:33:03.041Z,10.67
2022-12-26T02:35:50.860Z,9.51
2022-12-26T02:38:36.211Z,8.69
2022-12-26T02:41:19.930Z,8.39
2022-12-26T02:44:24.512Z,9.58
2022-12-26T02:47:09.495Z,10.81
2022-12-26T02:50:20.898Z,11.55
2022-12-26T02:53:30.650Z,12.16
2022-12-26T02:56:25.229Z,12.11
2022-12-26T02:59:55.671Z,10.87
2022-12-26T03:02:42.994Z,9.67
2022-12-26T03:05:39.517Z,8.89
2022-12-26T03:08:35.992Z,8.28
2022-12-26T03:11:26.297Z,8.34
2022-12-26T03:14:12.442Z,9.77
2022-12-26T03:17:05.776Z,10.89
2022-12-26T03:19:58.576Z,11.40
2022-12-26T03:22:38.264Z,11.77
2022-12-26T03:25:31.864Z,12.21
2022-12-26T03:28:04.919Z,12.16
2022-12-26T03:30:52.627Z,11.09
2022-12-26T03:33:47.619Z,9.95
2022-12-26T03:36:31.079Z,9.07
2022-12-26T03:39:20.746Z,8.85
2022-12-26T03:42:20.297Z,9.96
2022-12-26T03:45:16.658Z,10.81
2022-12-26T03:48:16.242Z,11.32
2022-12-26T03:51:13.412Z,11.74
2022-12-26T03:54:08.600Z,12.03
2022-12-26T03:57:04.756Z,12.24
2022-12-26T04:00:02.763Z,12.02
2022-12-26T04:03:05.156Z,10.71
2022-12-26T04:05:58.156Z,9.60
2022-12-26T04:08:58.510Z,9.08
2022-12-26T04:11:51.176Z,9.74
2022-12-26T04:14:59.466Z,10.48
2022-12-26T04:17:53.704Z,11.00
2022-12-26T04:20:31.506Z,11.48
2022-12-26T04:23:28.648Z,11.75
2022-12-26T04:26:25.164Z,11.96
2022-12-26T04:29:15.661Z,12.12
2022-12-26T04:32:13.420Z,11.97
2022-12-26T04:35:12.969Z,10.72
2022-12-26T04:38:06.405Z,9.53
2022-12-26T04:41:01.185Z,9.12
2022-12-26T04:43:52.614Z,10.12
2022-12-26T04:46:26.978Z,10.97
2022-12-26T04:49:32.208Z,11.45
2022-12-26T04:52:06.755Z,11.85
2022-12-26T04:54:39.520Z,12.08
2022-12-26T04:57:14.073Z,12.32
2022-12-26T04:59:47.514Z,12.59
2022-12-26T05:02:37.799Z,12.52
2022-12-26T05:05:29.545Z,11.33
2022-12-26T05:08:21.329Z,10.06
2022-12-26T05:10:53.963Z,9.11
2022-12-26T05:13:28.028Z,8.75
2022-12-26T05:16:18.305Z,9.67
2022-12-26T05:19:08.569Z,10.55
2022-12-26T05:21:59.156Z,11.06
2022-12-26T05:24:53.720Z,11.29
2022-12-26T05:27:50.042Z,11.44
2022-12-26T05:30:23.100Z,11.57
2022-12-26T05:33:13.202Z,11.66
2022-12-26T05:35:45.866Z,11.77
2022-12-26T05:38:18.506Z,11.91
2022-12-26T05:40:51.015Z,12.13
2022-12-26T05:43:24.268Z,12.20
2022-12-26T05:45:57.779Z,12.17
2022-12-26T05:48:30.801Z,12.18
2022-12-26T05:51:05.290Z,11.95
2022-12-26T05:53:37.976Z,10.92
2022-12-26T05:56:15.033Z,9.86
2022-12-26T05:58:47.941Z,9.26
2022-12-26T06:01:22.529Z,9.87
2022-12-26T06:03:56.980Z,10.57
2022-12-26T06:06:31.082Z,10.90
2022-12-26T06:09:04.602Z,11.23
2022-12-26T06:11:37.117Z,11.38
2022-12-26T06:14:09.609Z,11.45
2022-12-26T06:16:42.589Z,11.50
2022-12-26T06:19:15.255Z,11.66
2022-12-26T06:21:49.123Z,11.83
2022-12-26T06:24:21.861Z,11.92
2022-12-26T06:26:54.788Z,12.02
2022-12-26T06:29:27.834Z,12.07
2022-12-26T06:32:01.755Z,12.10
2022-12-26T06:34:35.235Z,12.10
2022-12-26T06:37:07.974Z,12.15
2022-12-26T06:39:40.501Z,12.00
2022-12-26T06:42:13.144Z,11.08
2022-12-26T06:44:46.445Z,10.10
2022-12-26T06:47:19.107Z,9.58
2022-12-26T06:49:51.818Z,10.19
2022-12-26T06:52:24.466Z,10.97
2022-12-26T06:54:59.216Z,11.42
2022-12-26T06:57:32.878Z,11.81
2022-12-26T07:00:07.333Z,12.21
2022-12-26T07:02:40.147Z,12.42
2022-12-26T07:05:13.103Z,12.51
2022-12-26T07:07:45.732Z,12.36
2022-12-26T07:10:19.622Z,11.39
2022-12-26T07:12:52.800Z,10.39
2022-12-26T07:15:25.515Z,9.65
2022-12-26T07:17:58.700Z,9.34
2022-12-26T07:20:32.030Z,10.06
2022-12-26T07:23:07.057Z,10.87
2022-12-26T07:25:41.389Z,11.42
2022-12-26T07:28:14.146Z,11.81
2022-12-26T07:30:51.081Z,12.02
2022-12-26T07:33:23.962Z,12.18
2022-12-26T07:36:00.836Z,12.33
2022-12-26T07:38:34.025Z,12.59
2022-12-26T07:41:20.688Z,12.88
2022-12-26T07:43:53.605Z,12.63
2022-12-26T07:46:27.396Z,11.68
2022-12-26T07:49:00.349Z,10.79
2022-12-26T07:51:33.029Z,10.10
2022-12-26T07:54:11.061Z,9.77
2022-12-26T07:56:45.215Z,10.21
2022-12-26T07:59:19.065Z,10.66
2022-12-26T08:01:51.799Z,11.09
2022-12-26T08:04:24.598Z,11.68
2022-12-26T08:06:57.244Z,11.97
2022-12-26T08:09:32.043Z,12.03
2022-12-26T08:12:04.886Z,12.17
2022-12-26T08:14:37.748Z,12.34
2022-12-26T08:17:13.647Z,12.46
2022-12-26T08:19:46.205Z,12.58
2022-12-26T08:22:19.652Z,13.03
2022-12-26T08:24:52.281Z,13.47
2022-12-26T08:27:24.967Z,13.59
2022-12-26T08:29:57.584Z,12.83
2022-12-26T08:32:30.483Z,11.98
2022-12-26T08:35:03.419Z,11.31
2022-12-26T08:37:36.110Z,10.80
2022-12-26T08:40:11.179Z,10.54
2022-12-26T08:43:11.802Z,11.22
2022-12-26T08:45:38.160Z,12.49
2022-12-26T08:48:11.707Z,13.29
2022-12-26T08:50:44.311Z,13.78
2022-12-26T08:53:17.011Z,13.91
2022-12-26T08:55:51.266Z,13.16
2022-12-26T08:58:24.153Z,12.29
2022-12-26T09:00:57.098Z,11.64
2022-12-26T09:03:29.846Z,11.14
2022-12-26T09:06:06.458Z,10.89
2022-12-26T09:08:40.941Z,11.67
2022-12-26T09:11:16.192Z,12.38
2022-12-26T09:13:49.399Z,13.10
2022-12-26T09:16:24.807Z,13.87
2022-12-26T09:19:01.740Z,14.17
2022-12-26T09:21:34.906Z,13.39
2022-12-26T09:24:09.782Z,12.50
2022-12-26T09:26:42.654Z,11.76
2022-12-26T09:29:16.372Z,11.17
2022-12-26T09:31:49.820Z,10.72
2022-12-26T09:34:22.510Z,10.70
2022-12-26T09:36:55.167Z,11.71
2022-12-26T09:39:27.985Z,12.50
2022-12-26T09:42:09.893Z,12.98
2022-12-26T09:44:53.722Z,13.33
2022-12-26T09:47:35.470Z,13.67
2022-12-26T09:50:16.311Z,13.62
2022-12-26T09:52:53.392Z,12.77
2022-12-26T09:55:38.019Z,12.01
2022-12-26T09:58:21.143Z,11.39
2022-12-26T10:00:58.561Z,10.88
2022-12-26T10:03:31.974Z,10.71
2022-12-26T10:06:14.738Z,11.42
2022-12-26T10:09:21.255Z,12.19
2022-12-26T10:12:19.142Z,12.64
2022-12-26T10:14:59.040Z,13.00
2022-12-26T10:17:41.759Z,13.31
2022-12-26T10:20:28.885Z,13.22
2022-12-26T10:23:37.158Z,12.32
2022-12-26T10:26:15.742Z,11.43
2022-12-26T10:28:52.293Z,10.89
2022-12-26T10:31:31.883Z,10.49
2022-12-26T10:34:12.356Z,10.42
2022-12-26T10:36:50.039Z,11.31
2022-12-26T10:39:27.859Z,12.22
2022-12-26T10:42:05.155Z,12.98
2022-12-26T10:44:37.669Z,13.59
2022-12-26T10:47:26.744Z,13.74
2022-12-26T10:50:00.235Z,12.87
2022-12-26T10:52:38.274Z,12.04
2022-12-26T10:55:29.719Z,11.35
2022-12-26T10:58:15.977Z,10.78
2022-12-26T11:00:48.886Z,10.72
2022-12-26T11:03:22.885Z,11.72
2022-12-26T11:06:13.403Z,12.64
2022-12-26T11:08:51.943Z,13.33
2022-12-26T11:11:27.335Z,13.54
2022-12-26T11:14:04.390Z,12.79
2022-12-26T11:16:41.562Z,11.95
2022-12-26T11:19:29.875Z,11.31
2022-12-26T11:22:26.974Z,10.82
2022-12-26T11:25:19.969Z,10.44
2022-12-26T11:27:55.159Z,10.60
2022-12-26T11:30:33.121Z,11.75
2022-12-26T11:33:24.393Z,12.40
2022-12-26T11:36:06.721Z,12.88
2022-12-26T11:38:50.842Z,13.43
2022-12-26T11:41:42.356Z,13.51
2022-12-26T11:44:23.897Z,12.69
2022-12-26T11:47:00.944Z,11.91
2022-12-26T11:49:37.445Z,11.28
2022-12-26T11:52:38.036Z,10.81
2022-12-26T11:55:34.756Z,10.76
2022-12-26T11:58:23.002Z,11.78
2022-12-26T12:01:14.425Z,12.49
2022-12-26T12:06:49.465Z,13.31
2022-12-26T12:09:30.329Z,13.57
2022-12-26T12:12:11.419Z,13.54
2022-12-26T12:14:56.629Z,12.74
2022-12-26T12:17:37.146Z,11.89
2022-12-26T12:20:30.258Z,11.25
2022-12-26T12:23:21.057Z,10.74
2022-12-26T12:26:10.775Z,10.64
2022-12-26T12:29:08.693Z,11.76
2022-12-26T12:31:44.940Z,12.84
2022-12-26T12:34:32.340Z,13.37
2022-12-26T12:37:19.548Z,13.68
2022-12-26T12:40:01.611Z,13.58
2022-12-26T12:42:46.688Z,12.74
2022-12-26T12:45:28.486Z,11.95
2022-12-26T12:48:24.690Z,11.38
2022-12-26T12:51:06.101Z,10.93
2022-12-26T12:53:58.725Z,10.84
2022-12-26T12:56:42.624Z,11.82
2022-12-26T12:59:27.316Z,12.82
2022-12-26T13:02:10.318Z,13.36
2022-12-26T13:04:49.434Z,13.62
2022-12-26T13:07:27.063Z,13.60
2022-12-26T13:10:02.125Z,12.82
2022-12-26T13:12:40.546Z,12.06
2022-12-26T13:15:35.967Z,11.46
2022-12-26T13:18:15.057Z,10.96
2022-12-26T13:20:50.255Z,10.62
2022-12-26T13:23:45.815Z,10.60
2022-12-26T13:26:23.945Z,11.58
2022-12-26T13:28:59.853Z,12.26
2022-12-26T13:31:37.323Z,12.97
2022-12-26T13:34:15.641Z,13.69
2022-12-26T13:36:49.728Z,13.90
2022-12-26T13:39:47.932Z,13.05
2022-12-26T13:42:49.588Z,12.00
2022-12-26T13:45:58.309Z,11.17
2022-12-26T13:49:08.251Z,10.49
2022-12-26T13:51:57.308Z,10.43
2022-12-26T13:54:31.775Z,11.48
2022-12-26T13:57:44.636Z,12.25
2022-12-26T14:00:20.828Z,12.83
2022-12-26T14:03:24.524Z,13.02
2022-12-26T14:06:18.133Z,13.13
2022-12-26T14:09:13.893Z,13.07
2022-12-26T14:12:11.092Z,12.00
2022-12-26T14:14:57.087Z,10.92
2022-12-26T14:17:48.243Z,10.16
2022-12-26T14:20:39.009Z,9.87
2022-12-26T14:23:30.185Z,10.75
2022-12-26T14:26:09.194Z,11.48
2022-12-26T14:28:59.206Z,11.82
2022-12-26T14:31:42.475Z,12.04
2022-12-26T14:34:28.847Z,12.17
2022-12-26T14:37:15.927Z,12.41
2022-12-26T14:40:10.409Z,12.99
2022-12-26T14:43:12.117Z,13.42
2022-12-26T14:45:49.013Z,13.27
2022-12-26T14:48:44.207Z,12.13
2022-12-26T14:51:42.365Z,10.90
2022-12-26T14:54:51.246Z,9.97
2022-12-26T14:57:56.595Z,9.63
2022-12-26T15:00:35.809Z,10.57
2022-12-26T15:03:40.767Z,11.17
2022-12-26T15:06:54.918Z,11.62
2022-12-26T15:09:55.669Z,11.98
2022-12-26T15:13:04.004Z,12.14
2022-12-26T15:15:46.335Z,12.30
2022-12-26T15:18:43.401Z,12.47
2022-12-26T15:21:45.933Z,12.51
2022-12-26T15:25:17.997Z,12.57
2022-12-26T15:28:24.380Z,12.49
2022-12-26T15:31:16.138Z,12.45
2022-12-26T15:33:55.403Z,12.56
2022-12-26T15:36:37.554Z,12.64
2022-12-26T15:39:23.016Z,12.74
2022-12-26T15:42:06.147Z,12.57
2022-12-26T15:44:52.094Z,11.55
2022-12-26T15:47:35.370Z,10.55
2022-12-26T15:50:20.453Z,10.01
2022-12-26T15:53:03.645Z,10.59
2022-12-26T15:55:52.494Z,11.26
2022-12-26T15:58:45.506Z,11.70
2022-12-26T16:01:38.710Z,11.94
2022-12-26T16:04:19.478Z,12.20
2022-12-26T16:07:11.015Z,12.33
2022-12-26T16:09:48.377Z,12.45
2022-12-26T16:12:27.341Z,12.58
2022-12-26T16:15:20.925Z,12.63
2022-12-26T16:17:53.839Z,12.65
2022-12-26T16:20:53.251Z,12.63
2022-12-26T16:23:31.743Z,12.63
2022-12-26T16:26:04.579Z,12.54
2022-12-26T16:28:41.707Z,11.74
2022-12-26T16:31:20.917Z,10.80
2022-12-26T16:33:58.620Z,10.06
2022-12-26T16:36:35.843Z,9.79
2022-12-26T16:39:14.316Z,10.58
2022-12-26T16:42:06.433Z,11.18
2022-12-26T16:44:44.547Z,11.48
2022-12-26T16:47:18.496Z,11.65
2022-12-26T16:49:52.132Z,11.80
2022-12-26T16:52:40.561Z,12.04
2022-12-26T16:55:37.984Z,12.38
2022-12-26T16:58:21.953Z,12.57
2022-12-26T17:01:13.528Z,12.66
2022-12-26T17:03:54.304Z,12.57
2022-12-26T17:06:31.631Z,12.65
2022-12-26T17:09:17.159Z,12.68
2022-12-26T17:11:55.070Z,12.64
2022-12-26T17:14:33.116Z,12.76
2022-12-26T17:17:08.471Z,12.97
2022-12-26T17:19:41.055Z,13.07
2022-12-26T17:22:33.217Z,12.82
2022-12-26T17:25:28.066Z,11.69
2022-12-26T17:28:29.991Z,10.57
2022-12-26T17:31:17.845Z,10.18
2022-12-26T17:33:50.795Z,11.15
2022-12-26T17:39:23.716Z,12.32
2022-12-26T17:41:59.297Z,12.49
2022-12-26T17:44:44.096Z,12.72
2022-12-26T17:47:23.437Z,12.87
2022-12-26T17:49:57.055Z,12.74
2022-12-26T17:52:32.056Z,12.70
2022-12-26T17:55:12.901Z,12.69
2022-12-26T17:57:45.745Z,12.69
2022-12-26T18:00:24.765Z,12.73
2022-12-26T18:02:57.433Z,12.82
2022-12-26T18:05:31.787Z,13.00
2022-12-26T18:08:04.965Z,12.67
2022-12-26T18:10:39.063Z,11.70
2022-12-26T18:13:18.628Z,10.75
2022-12-26T18:15:52.099Z,10.23
2022-12-26T18:18:32.715Z,10.80
2022-12-26T18:21:07.294Z,11.42
2022-12-26T18:23:40.388Z,11.78
2022-12-26T18:26:21.648Z,12.00
2022-12-26T18:28:55.541Z,12.15
2022-12-26T18:31:28.528Z,12.27
2022-12-26T18:34:01.240Z,12.49
2022-12-26T18:36:36.516Z,12.41
2022-12-26T18:39:09.071Z,12.35
2022-12-26T18:41:42.189Z,12.34
2022-12-26T18:44:15.799Z,12.31
2022-12-26T18:46:48.295Z,12.30
2022-12-26T18:49:20.765Z,12.48
2022-12-26T18:51:53.838Z,12.55
2022-12-26T18:54:26.361Z,12.46
2022-12-26T18:56:58.847Z,12.25
2022-12-26T18:59:31.338Z,12.17
2022-12-26T19:02:04.108Z,12.14
2022-12-26T19:04:37.921Z,12.14
2022-12-26T19:07:11.021Z,12.41
2022-12-26T19:09:47.396Z,12.56
2022-12-26T19:12:19.994Z,12.65
2022-12-26T19:14:52.686Z,12.75
2022-12-26T19:17:26.111Z,12.79
2022-12-26T19:19:59.262Z,12.87
2022-12-26T19:22:32.537Z,12.95
2022-12-26T19:25:06.161Z,13.05
2022-12-26T19:27:40.488Z,13.14
2022-12-26T19:30:14.576Z,13.13
2022-12-26T19:32:47.631Z,13.07
2022-12-26T19:35:21.383Z,12.97
2022-12-26T19:37:54.152Z,12.92
2022-12-26T19:40:28.021Z,12.77
2022-12-26T19:43:00.873Z,12.55
2022-12-26T19:45:33.930Z,12.52
2022-12-26T19:48:07.115Z,12.60
2022-12-26T19:50:39.746Z,12.63
2022-12-26T19:53:13.667Z,12.58
2022-12-26T19:55:46.186Z,12.47
2022-12-26T19:58:18.722Z,12.29
2022-12-26T20:00:51.610Z,12.31
2022-12-26T20:03:24.277Z,12.52
2022-12-26T20:05:56.765Z,12.48
2022-12-26T20:08:29.889Z,12.26
2022-12-26T20:11:08.239Z,12.23
2022-12-26T20:13:39.097Z,12.22
2022-12-26T20:16:45.730Z,12.20
2022-12-26T20:19:09.078Z,12.28
2022-12-26T20:21:41.636Z,12.31
2022-12-26T20:24:14.818Z,12.33
2022-12-26T20:26:47.427Z,12.41
2022-12-26T20:29:20.161Z,12.46
2022-12-26T20:31:55.410Z,12.35
2022-12-26T20:34:27.940Z,12.35
2022-12-26T20:37:00.957Z,12.47
2022-12-26T20:39:34.907Z,12.53
2022-12-26T20:42:07.563Z,12.71
2022-12-26T20:44:41.619Z,12.75
2022-12-26T20:47:14.260Z,12.62
2022-12-26T20:49:51.267Z,12.65
2022-12-26T20:52:23.749Z,12.54
2022-12-26T20:54:56.445Z,12.30
2022-12-26T20:57:29.163Z,12.13
2022-12-26T21:00:02.747Z,12.07
2022-12-26T21:02:35.262Z,11.86
2022-12-26T21:05:08.964Z,11.67
2022-12-26T21:07:41.549Z,11.58
2022-12-26T21:10:15.717Z,11.49
2022-12-26T21:12:48.208Z,11.44
2022-12-26T21:15:20.823Z,11.81
2022-12-26T21:17:53.620Z,12.30
2022-12-26T21:20:26.172Z,12.61
2022-12-26T21:22:59.073Z,12.87
2022-12-26T21:25:31.920Z,13.00
2022-12-26T21:28:05.402Z,13.06
2022-12-26T21:30:37.909Z,13.02
2022-12-26T21:33:11.683Z,13.09
2022-12-26T21:35:44.211Z,13.08
2022-12-26T21:38:16.781Z,12.99
2022-12-26T21:40:49.469Z,12.73
2022-12-26T21:43:30.345Z,12.50
2022-12-26T21:46:06.686Z,12.37
2022-12-26T21:48:39.510Z,12.39
2022-12-26T21:51:12.190Z,12.74
2022-12-26T21:53:46.367Z,12.95
2022-12-26T21:56:20.077Z,12.93
2022-12-26T21:59:21.255Z,12.80
2022-12-26T22:01:55.070Z,12.42
2022-12-26T22:04:29.413Z,12.42
2022-12-26T22:07:02.259Z,12.72
2022-12-26T22:09:34.909Z,12.84
2022-12-26T22:12:25.327Z,12.76
2022-12-26T22:14:57.849Z,12.78
2022-12-26T22:17:32.711Z,12.84
2022-12-26T22:20:05.505Z,12.76
2022-12-26T22:22:38.076Z,12.62
2022-12-26T22:25:11.441Z,12.41
2022-12-26T22:27:44.186Z,12.09
2022-12-26T22:30:17.175Z,11.85
2022-12-26T22:32:50.485Z,11.69
2022-12-26T22:35:23.115Z,11.59
2022-12-26T22:37:55.592Z,11.49
2022-12-26T22:40:29.853Z,11.43
2022-12-26T22:43:03.350Z,11.34
2022-12-26T22:45:36.233Z,11.28
2022-12-26T22:48:09.188Z,11.23
2022-12-26T22:50:45.430Z,11.20
2022-12-26T22:53:17.892Z,11.21
2022-12-26T22:55:53.116Z,11.25
2022-12-26T22:58:25.701Z,11.26
2022-12-26T23:00:59.031Z,11.21
2022-12-26T23:03:31.979Z,11.17
2022-12-26T23:06:16.961Z,11.14
2022-12-26T23:08:50.948Z,11.13
2022-12-26T23:11:28.771Z,11.16
2022-12-26T23:14:10.628Z,11.20
2022-12-26T23:16:51.691Z,11.21
2022-12-26T23:19:50.326Z,11.24
2022-12-26T23:22:23.612Z,11.50
2022-12-26T23:24:56.135Z,11.92
2022-12-26T23:28:00.783Z,12.34
2022-12-26T23:30:33.405Z,12.99
2022-12-26T23:33:06.032Z,13.50
2022-12-26T23:35:40.187Z,13.90
2022-12-26T23:38:12.679Z,14.18
2022-12-26T23:40:45.486Z,14.38
2022-12-26T23:43:18.362Z,14.28
2022-12-26T23:45:51.093Z,13.25
2022-12-26T23:48:24.716Z,12.15
2022-12-26T23:51:07.580Z,11.28
2022-12-26T23:53:40.198Z,10.92
2022-12-26T23:56:13.154Z,11.87
2022-12-26T23:58:46.117Z,12.81
